sensor_id;sensor_type;location;lat;lon;timestamp;temperature;humidity
59282;DHT22;45054;52.062;10.010;2023-04-06T00:02:17;1.20;99.90
59282;DHT22;45054;52.062;10.010;2023-04-06T00:04:42;1.30;99.90
59282;DHT22;45054;52.062;10.010;2023-04-06T00:07:08;1.20;99.90
59282;DHT22;45054;52.062;10.010;2023-04-06T00:09:34;1.10;99.90
59282;DHT22;45054;52.062;10.010;2023-04-06T00:12:00;1.20;99.90
59282;DHT22;45054;52.062;10.010;2023-04-06T00:14:25;1.20;99.90
59282;DHT22;45054;52.062;10.010;2023-04-06T00:16:51;1.10;99.90
59282;DHT22;45054;52.062;10.010;2023-04-06T00:19:16;1.10;99.90
59282;DHT22;45054;52.062;10.010;2023-04-06T00:21:41;1.10;99.90
59282;DHT22;45054;52.062;10.010;2023-04-06T00:24:07;1.10;99.90
59282;DHT22;45054;52.062;10.010;2023-04-06T00:26:34;1.00;99.90
59282;DHT22;45054;52.062;10.010;2023-04-06T00:28:59;0.90;99.90
59282;DHT22;45054;52.062;10.010;2023-04-06T00:31:25;0.90;99.90
59282;DHT22;45054;52.062;10.010;2023-04-06T00:33:50;1.00;99.90
59282;DHT22;45054;52.062;10.010;2023-04-06T00:36:15;0.90;99.90
59282;DHT22;45054;52.062;10.010;2023-04-06T00:38:41;0.90;99.90
59282;DHT22;45054;52.062;10.010;2023-04-06T00:41:06;0.80;99.90
59282;DHT22;45054;52.062;10.010;2023-04-06T00:43:33;0.80;99.90
59282;DHT22;45054;52.062;10.010;2023-04-06T00:45:58;0.80;99.90
59282;DHT22;45054;52.062;10.010;2023-04-06T00:48:24;0.90;99.90
59282;DHT22;45054;52.062;10.010;2023-04-06T00:50:49;0.80;99.90
59282;DHT22;45054;52.062;10.010;2023-04-06T00:53:15;0.80;99.90
59282;DHT22;45054;52.062;10.010;2023-04-06T00:55:40;0.90;99.90
59282;DHT22;45054;52.062;10.010;2023-04-06T00:58:06;0.80;99.90
59282;DHT22;45054;52.062;10.010;2023-04-06T01:00:33;0.80;99.90
59282;DHT22;45054;52.062;10.010;2023-04-06T01:02:58;0.80;99.90
59282;DHT22;45054;52.062;10.010;2023-04-06T01:05:23;0.80;99.90
59282;DHT22;45054;52.062;10.010;2023-04-06T01:07:49;0.80;99.90
59282;DHT22;45054;52.062;10.010;2023-04-06T01:10:22;0.70;99.90
59282;DHT22;45054;52.062;10.010;2023-04-06T01:12:47;0.60;99.90
59282;DHT22;45054;52.062;10.010;2023-04-06T01:15:12;0.50;99.90
59282;DHT22;45054;52.062;10.010;2023-04-06T01:17:40;0.40;99.90
59282;DHT22;45054;52.062;10.010;2023-04-06T01:20:06;0.40;99.90
59282;DHT22;45054;52.062;10.010;2023-04-06T01:22:33;0.40;99.90
59282;DHT22;45054;52.062;10.010;2023-04-06T01:24:58;0.50;99.90
59282;DHT22;45054;52.062;10.010;2023-04-06T01:27:24;0.40;99.90
59282;DHT22;45054;52.062;10.010;2023-04-06T01:29:49;0.40;99.90
59282;DHT22;45054;52.062;10.010;2023-04-06T01:32:14;0.50;99.90
59282;DHT22;45054;52.062;10.010;2023-04-06T01:34:40;0.50;99.90
59282;DHT22;45054;52.062;10.010;2023-04-06T01:37:05;0.40;99.90
59282;DHT22;45054;52.062;10.010;2023-04-06T01:39:32;0.30;99.90
59282;DHT22;45054;52.062;10.010;2023-04-06T01:41:58;0.30;99.90
59282;DHT22;45054;52.062;10.010;2023-04-06T01:44:23;0.20;99.90
59282;DHT22;45054;52.062;10.010;2023-04-06T01:46:48;0.20;99.90
59282;DHT22;45054;52.062;10.010;2023-04-06T01:49:14;0.20;99.90
59282;DHT22;45054;52.062;10.010;2023-04-06T01:51:39;0.20;99.90
59282;DHT22;45054;52.062;10.010;2023-04-06T01:54:05;0.20;99.90
59282;DHT22;45054;52.062;10.010;2023-04-06T01:56:31;0.30;99.90
59282;DHT22;45054;52.062;10.010;2023-04-06T01:58:57;0.30;99.90
59282;DHT22;45054;52.062;10.010;2023-04-06T02:01:22;0.30;99.90
59282;DHT22;45054;52.062;10.010;2023-04-06T02:03:48;0.30;99.90
59282;DHT22;45054;52.062;10.010;2023-04-06T02:06:13;0.40;99.90
59282;DHT22;45054;52.062;10.010;2023-04-06T02:08:39;0.40;99.90
59282;DHT22;45054;52.062;10.010;2023-04-06T02:11:04;0.40;99.90
59282;DHT22;45054;52.062;10.010;2023-04-06T02:13:31;0.40;99.90
59282;DHT22;45054;52.062;10.010;2023-04-06T02:15:56;0.50;99.90
59282;DHT22;45054;52.062;10.010;2023-04-06T02:18:22;0.50;99.90
59282;DHT22;45054;52.062;10.010;2023-04-06T02:20:47;0.50;99.90
59282;DHT22;45054;52.062;10.010;2023-04-06T02:23:13;0.50;99.90
59282;DHT22;45054;52.062;10.010;2023-04-06T02:25:38;0.60;99.90
59282;DHT22;45054;52.062;10.010;2023-04-06T02:28:04;0.50;99.90
59282;DHT22;45054;52.062;10.010;2023-04-06T02:30:30;0.50;99.90
59282;DHT22;45054;52.062;10.010;2023-04-06T02:32:56;0.50;99.90
59282;DHT22;45054;52.062;10.010;2023-04-06T02:35:21;0.50;99.90
59282;DHT22;45054;52.062;10.010;2023-04-06T02:37:47;0.50;99.90
59282;DHT22;45054;52.062;10.010;2023-04-06T02:40:13;0.50;99.90
59282;DHT22;45054;52.062;10.010;2023-04-06T02:42:39;0.50;99.90
59282;DHT22;45054;52.062;10.010;2023-04-06T02:45:04;0.50;99.90
59282;DHT22;45054;52.062;10.010;2023-04-06T02:47:32;0.50;99.90
59282;DHT22;45054;52.062;10.010;2023-04-06T02:49:57;0.40;99.90
59282;DHT22;45054;52.062;10.010;2023-04-06T02:52:23;0.40;99.90
59282;DHT22;45054;52.062;10.010;2023-04-06T02:54:48;0.30;99.90
59282;DHT22;45054;52.062;10.010;2023-04-06T02:57:14;0.30;99.90
59282;DHT22;45054;52.062;10.010;2023-04-06T02:59:39;0.30;99.90
59282;DHT22;45054;52.062;10.010;2023-04-06T03:02:04;0.30;99.90
59282;DHT22;45054;52.062;10.010;2023-04-06T03:04:31;0.30;99.90
59282;DHT22;45054;52.062;10.010;2023-04-06T03:06:57;0.20;99.90
59282;DHT22;45054;52.062;10.010;2023-04-06T03:09:22;0.10;99.90
59282;DHT22;45054;52.062;10.010;2023-04-06T03:11:48;0.10;99.90
59282;DHT22;45054;52.062;10.010;2023-04-06T03:14:13;0.10;99.90
59282;DHT22;45054;52.062;10.010;2023-04-06T03:16:38;0.20;99.90
59282;DHT22;45054;52.062;10.010;2023-04-06T03:19:04;0.30;99.90
59282;DHT22;45054;52.062;10.010;2023-04-06T03:21:31;0.30;99.90
59282;DHT22;45054;52.062;10.010;2023-04-06T03:23:56;0.30;99.90
59282;DHT22;45054;52.062;10.010;2023-04-06T03:26:21;0.10;99.90
59282;DHT22;45054;52.062;10.010;2023-04-06T03:28:47;0.20;99.90
59282;DHT22;45054;52.062;10.010;2023-04-06T03:31:12;0.10;99.90
59282;DHT22;45054;52.062;10.010;2023-04-06T03:33:38;0.10;99.90
59282;DHT22;45054;52.062;10.010;2023-04-06T03:36:04;0.10;99.90
59282;DHT22;45054;52.062;10.010;2023-04-06T03:38:31;0.00;99.90
59282;DHT22;45054;52.062;10.010;2023-04-06T03:40:56;-0.10;99.90
59282;DHT22;45054;52.062;10.010;2023-04-06T03:43:21;0.00;99.90
59282;DHT22;45054;52.062;10.010;2023-04-06T03:45:47;0.00;99.90
59282;DHT22;45054;52.062;10.010;2023-04-06T03:48:12;0.00;99.90
59282;DHT22;45054;52.062;10.010;2023-04-06T03:50:38;0.00;99.90
59282;DHT22;45054;52.062;10.010;2023-04-06T03:53:03;0.00;99.90
59282;DHT22;45054;52.062;10.010;2023-04-06T03:55:30;-0.10;99.90
59282;DHT22;45054;52.062;10.010;2023-04-06T03:57:55;0.00;99.90
59282;DHT22;45054;52.062;10.010;2023-04-06T04:00:21;0.00;99.90
59282;DHT22;45054;52.062;10.010;2023-04-06T04:02:46;0.00;99.90
59282;DHT22;45054;52.062;10.010;2023-04-06T04:05:12;0.00;99.90
59282;DHT22;45054;52.062;10.010;2023-04-06T04:07:37;-0.20;99.90
59282;DHT22;45054;52.062;10.010;2023-04-06T04:10:03;-0.20;99.90
59282;DHT22;45054;52.062;10.010;2023-04-06T04:12:29;-0.20;99.90
59282;DHT22;45054;52.062;10.010;2023-04-06T04:14:55;-0.20;99.90
59282;DHT22;45054;52.062;10.010;2023-04-06T04:17:21;-0.20;99.90
59282;DHT22;45054;52.062;10.010;2023-04-06T04:19:46;-0.20;99.90
59282;DHT22;45054;52.062;10.010;2023-04-06T04:22:12;-0.20;99.90
59282;DHT22;45054;52.062;10.010;2023-04-06T04:24:37;-0.20;99.90
59282;DHT22;45054;52.062;10.010;2023-04-06T04:27:03;-0.30;99.90
59282;DHT22;45054;52.062;10.010;2023-04-06T04:29:30;-0.30;99.90
59282;DHT22;45054;52.062;10.010;2023-04-06T04:31:55;-0.30;99.90
59282;DHT22;45054;52.062;10.010;2023-04-06T04:34:20;-0.40;99.90
59282;DHT22;45054;52.062;10.010;2023-04-06T04:36:46;-0.40;99.90
59282;DHT22;45054;52.062;10.010;2023-04-06T04:39:11;-0.40;99.90
59282;DHT22;45054;52.062;10.010;2023-04-06T04:41:37;-0.50;99.90
59282;DHT22;45054;52.062;10.010;2023-04-06T04:44:02;-0.50;99.90
59282;DHT22;45054;52.062;10.010;2023-04-06T04:46:29;-0.50;99.90
59282;DHT22;45054;52.062;10.010;2023-04-06T04:48:55;-0.50;99.90
59282;DHT22;45054;52.062;10.010;2023-04-06T04:51:20;-0.50;99.90
59282;DHT22;45054;52.062;10.010;2023-04-06T04:53:46;-0.50;99.90
59282;DHT22;45054;52.062;10.010;2023-04-06T04:56:11;-0.50;99.90
59282;DHT22;45054;52.062;10.010;2023-04-06T04:58:36;-0.60;99.90
59282;DHT22;45054;52.062;10.010;2023-04-06T05:01:02;-0.60;99.90
59282;DHT22;45054;52.062;10.010;2023-04-06T05:03:29;-0.50;99.90
59282;DHT22;45054;52.062;10.010;2023-04-06T05:05:54;-0.50;99.90
59282;DHT22;45054;52.062;10.010;2023-04-06T05:08:20;-0.60;99.90
59282;DHT22;45054;52.062;10.010;2023-04-06T05:10:45;-0.60;99.90
59282;DHT22;45054;52.062;10.010;2023-04-06T05:13:10;-0.70;99.90
59282;DHT22;45054;52.062;10.010;2023-04-06T05:15:36;-0.60;99.90
59282;DHT22;45054;52.062;10.010;2023-04-06T05:18:01;-0.60;99.90
59282;DHT22;45054;52.062;10.010;2023-04-06T05:20:28;-0.50;99.90
59282;DHT22;45054;52.062;10.010;2023-04-06T05:22:54;-0.50;99.90
59282;DHT22;45054;52.062;10.010;2023-04-06T05:25:19;-0.50;99.90
59282;DHT22;45054;52.062;10.010;2023-04-06T05:27:45;-0.50;99.90
59282;DHT22;45054;52.062;10.010;2023-04-06T05:30:10;-0.50;99.90
59282;DHT22;45054;52.062;10.010;2023-04-06T05:32:36;-0.40;99.90
59282;DHT22;45054;52.062;10.010;2023-04-06T05:35:01;-0.40;99.90
59282;DHT22;45054;52.062;10.010;2023-04-06T05:37:28;-0.30;99.90
59282;DHT22;45054;52.062;10.010;2023-04-06T05:39:53;-0.20;99.90
59282;DHT22;45054;52.062;10.010;2023-04-06T05:42:19;-0.20;99.90
59282;DHT22;45054;52.062;10.010;2023-04-06T05:44:44;-0.20;99.90
59282;DHT22;45054;52.062;10.010;2023-04-06T05:47:10;-0.20;99.90
59282;DHT22;45054;52.062;10.010;2023-04-06T05:49:35;-0.20;99.90
59282;DHT22;45054;52.062;10.010;2023-04-06T05:52:01;-0.20;99.90
59282;DHT22;45054;52.062;10.010;2023-04-06T05:54:28;-0.10;99.90
59282;DHT22;45054;52.062;10.010;2023-04-06T05:56:53;-0.10;99.90
59282;DHT22;45054;52.062;10.010;2023-04-06T05:59:18;-0.20;99.90
59282;DHT22;45054;52.062;10.010;2023-04-06T06:01:44;-0.10;99.90
59282;DHT22;45054;52.062;10.010;2023-04-06T06:04:09;0.00;99.90
59282;DHT22;45054;52.062;10.010;2023-04-06T06:06:35;0.00;99.90
59282;DHT22;45054;52.062;10.010;2023-04-06T06:09:00;0.10;99.90
59282;DHT22;45054;52.062;10.010;2023-04-06T06:11:27;0.10;99.90
59282;DHT22;45054;52.062;10.010;2023-04-06T06:13:52;0.20;99.90
59282;DHT22;45054;52.062;10.010;2023-04-06T06:16:18;0.30;99.90
59282;DHT22;45054;52.062;10.010;2023-04-06T06:18:44;0.40;99.90
59282;DHT22;45054;52.062;10.010;2023-04-06T06:21:09;0.50;99.90
59282;DHT22;45054;52.062;10.010;2023-04-06T06:23:35;0.60;99.90
59282;DHT22;45054;52.062;10.010;2023-04-06T06:26:00;0.70;99.90
59282;DHT22;45054;52.062;10.010;2023-04-06T06:28:27;0.80;99.90
59282;DHT22;45054;52.062;10.010;2023-04-06T06:30:52;0.90;99.90
59282;DHT22;45054;52.062;10.010;2023-04-06T06:33:18;0.90;99.90
59282;DHT22;45054;52.062;10.010;2023-04-06T06:35:43;1.10;99.90
59282;DHT22;45054;52.062;10.010;2023-04-06T06:38:09;1.20;99.90
59282;DHT22;45054;52.062;10.010;2023-04-06T06:40:34;1.30;99.90
59282;DHT22;45054;52.062;10.010;2023-04-06T06:42:59;1.40;99.90
59282;DHT22;45054;52.062;10.010;2023-04-06T06:45:26;1.50;99.90
59282;DHT22;45054;52.062;10.010;2023-04-06T06:47:52;1.60;99.90
59282;DHT22;45054;52.062;10.010;2023-04-06T06:50:17;1.70;99.90
59282;DHT22;45054;52.062;10.010;2023-04-06T06:52:43;1.80;99.90
59282;DHT22;45054;52.062;10.010;2023-04-06T06:55:09;2.00;99.90
59282;DHT22;45054;52.062;10.010;2023-04-06T06:57:34;2.00;99.90
59282;DHT22;45054;52.062;10.010;2023-04-06T07:00:00;2.20;99.90
59282;DHT22;45054;52.062;10.010;2023-04-06T07:02:27;2.30;99.90
59282;DHT22;45054;52.062;10.010;2023-04-06T07:04:52;2.40;99.90
59282;DHT22;45054;52.062;10.010;2023-04-06T07:07:17;2.40;99.90
59282;DHT22;45054;52.062;10.010;2023-04-06T07:09:43;2.50;99.90
59282;DHT22;45054;52.062;10.010;2023-04-06T07:12:08;2.70;99.90
59282;DHT22;45054;52.062;10.010;2023-04-06T07:14:34;2.90;99.90
59282;DHT22;45054;52.062;10.010;2023-04-06T07:16:59;3.00;99.90
59282;DHT22;45054;52.062;10.010;2023-04-06T07:19:26;3.10;99.90
59282;DHT22;45054;52.062;10.010;2023-04-06T07:21:51;3.30;99.90
59282;DHT22;45054;52.062;10.010;2023-04-06T07:24:17;3.40;99.90
59282;DHT22;45054;52.062;10.010;2023-04-06T07:26:42;3.40;99.90
59282;DHT22;45054;52.062;10.010;2023-04-06T07:29:08;3.60;99.90
59282;DHT22;45054;52.062;10.010;2023-04-06T07:31:33;3.70;99.90
59282;DHT22;45054;52.062;10.010;2023-04-06T07:33:59;3.80;99.90
59282;DHT22;45054;52.062;10.010;2023-04-06T07:36:25;3.90;99.90
59282;DHT22;45054;52.062;10.010;2023-04-06T07:38:51;4.00;99.90
59282;DHT22;45054;52.062;10.010;2023-04-06T07:41:16;4.20;99.90
59282;DHT22;45054;52.062;10.010;2023-04-06T07:43:42;4.30;99.90
59282;DHT22;45054;52.062;10.010;2023-04-06T07:46:07;4.50;99.90
59282;DHT22;45054;52.062;10.010;2023-04-06T07:48:32;4.60;99.90
59282;DHT22;45054;52.062;10.010;2023-04-06T07:51:01;4.70;99.90
59282;DHT22;45054;52.062;10.010;2023-04-06T07:53:28;4.80;99.90
59282;DHT22;45054;52.062;10.010;2023-04-06T07:55:53;4.80;99.90
59282;DHT22;45054;52.062;10.010;2023-04-06T07:58:19;5.00;99.90
59282;DHT22;45054;52.062;10.010;2023-04-06T08:00:44;5.20;99.90
59282;DHT22;45054;52.062;10.010;2023-04-06T08:03:09;5.30;99.90
59282;DHT22;45054;52.062;10.010;2023-04-06T08:05:35;5.40;99.90
59282;DHT22;45054;52.062;10.010;2023-04-06T08:08:00;5.50;99.90
59282;DHT22;45054;52.062;10.010;2023-04-06T08:10:27;5.60;99.90
59282;DHT22;45054;52.062;10.010;2023-04-06T08:12:52;5.70;99.90
59282;DHT22;45054;52.062;10.010;2023-04-06T08:15:18;5.70;99.90
59282;DHT22;45054;52.062;10.010;2023-04-06T08:17:43;5.80;99.90
59282;DHT22;45054;52.062;10.010;2023-04-06T08:20:09;5.90;99.90
59282;DHT22;45054;52.062;10.010;2023-04-06T08:22:35;6.00;99.90
59282;DHT22;45054;52.062;10.010;2023-04-06T08:25:00;6.00;99.90
59282;DHT22;45054;52.062;10.010;2023-04-06T08:27:27;6.10;99.90
59282;DHT22;45054;52.062;10.010;2023-04-06T08:29:52;6.20;99.90
59282;DHT22;45054;52.062;10.010;2023-04-06T08:32:18;6.40;99.90
59282;DHT22;45054;52.062;10.010;2023-04-06T08:34:43;6.40;99.90
59282;DHT22;45054;52.062;10.010;2023-04-06T08:37:09;6.50;99.90
59282;DHT22;45054;52.062;10.010;2023-04-06T08:39:34;6.50;99.90
59282;DHT22;45054;52.062;10.010;2023-04-06T08:42:00;6.60;99.90
59282;DHT22;45054;52.062;10.010;2023-04-06T08:44:27;6.60;99.90
59282;DHT22;45054;52.062;10.010;2023-04-06T08:46:52;6.70;99.90
59282;DHT22;45054;52.062;10.010;2023-04-06T08:49:18;6.80;99.90
59282;DHT22;45054;52.062;10.010;2023-04-06T08:51:43;7.00;99.90
59282;DHT22;45054;52.062;10.010;2023-04-06T08:54:09;7.10;99.90
59282;DHT22;45054;52.062;10.010;2023-04-06T08:56:37;7.10;99.90
59282;DHT22;45054;52.062;10.010;2023-04-06T08:59:02;7.10;99.90
59282;DHT22;45054;52.062;10.010;2023-04-06T09:01:30;7.10;99.90
59282;DHT22;45054;52.062;10.010;2023-04-06T09:03:56;7.10;99.90
59282;DHT22;45054;52.062;10.010;2023-04-06T09:06:22;7.10;99.90
59282;DHT22;45054;52.062;10.010;2023-04-06T09:08:47;7.00;99.90
59282;DHT22;45054;52.062;10.010;2023-04-06T09:11:14;7.10;99.90
59282;DHT22;45054;52.062;10.010;2023-04-06T09:13:46;7.20;99.90
59282;DHT22;45054;52.062;10.010;2023-04-06T09:16:12;7.30;99.90
59282;DHT22;45054;52.062;10.010;2023-04-06T09:18:38;7.50;99.90
59282;DHT22;45054;52.062;10.010;2023-04-06T09:21:04;7.70;99.90
59282;DHT22;45054;52.062;10.010;2023-04-06T09:23:30;7.80;99.90
59282;DHT22;45054;52.062;10.010;2023-04-06T09:26:05;7.80;99.90
59282;DHT22;45054;52.062;10.010;2023-04-06T09:28:40;7.90;99.90
59282;DHT22;45054;52.062;10.010;2023-04-06T09:31:05;8.00;99.90
59282;DHT22;45054;52.062;10.010;2023-04-06T09:33:31;8.10;99.90
59282;DHT22;45054;52.062;10.010;2023-04-06T09:35:58;8.30;99.90
59282;DHT22;45054;52.062;10.010;2023-04-06T09:38:23;8.40;99.90
59282;DHT22;45054;52.062;10.010;2023-04-06T09:40:49;8.60;99.90
59282;DHT22;45054;52.062;10.010;2023-04-06T09:43:22;8.70;99.90
59282;DHT22;45054;52.062;10.010;2023-04-06T09:45:48;8.90;99.90
59282;DHT22;45054;52.062;10.010;2023-04-06T09:48:13;8.90;99.90
59282;DHT22;45054;52.062;10.010;2023-04-06T09:50:39;9.00;99.90
59282;DHT22;45054;52.062;10.010;2023-04-06T09:53:06;9.00;99.90
59282;DHT22;45054;52.062;10.010;2023-04-06T09:55:33;9.00;99.90
59282;DHT22;45054;52.062;10.010;2023-04-06T09:58:01;8.90;99.90
59282;DHT22;45054;52.062;10.010;2023-04-06T10:00:29;9.00;99.90
59282;DHT22;45054;52.062;10.010;2023-04-06T10:02:58;9.10;99.90
59282;DHT22;45054;52.062;10.010;2023-04-06T10:05:26;9.10;99.90
59282;DHT22;45054;52.062;10.010;2023-04-06T10:07:54;9.10;99.90
59282;DHT22;45054;52.062;10.010;2023-04-06T10:10:22;9.20;99.90
59282;DHT22;45054;52.062;10.010;2023-04-06T10:12:48;9.40;99.90
59282;DHT22;45054;52.062;10.010;2023-04-06T10:15:13;9.50;99.90
59282;DHT22;45054;52.062;10.010;2023-04-06T10:17:39;9.50;99.90
59282;DHT22;45054;52.062;10.010;2023-04-06T10:20:06;9.50;99.90
59282;DHT22;45054;52.062;10.010;2023-04-06T10:22:35;9.50;99.90
59282;DHT22;45054;52.062;10.010;2023-04-06T10:25:02;9.50;99.90
59282;DHT22;45054;52.062;10.010;2023-04-06T10:27:29;9.40;99.90
59282;DHT22;45054;52.062;10.010;2023-04-06T10:29:54;9.50;99.90
59282;DHT22;45054;52.062;10.010;2023-04-06T10:32:31;9.60;99.90
59282;DHT22;45054;52.062;10.010;2023-04-06T10:35:04;9.60;99.90
59282;DHT22;45054;52.062;10.010;2023-04-06T10:37:29;9.70;99.90
59282;DHT22;45054;52.062;10.010;2023-04-06T10:40:17;9.90;99.90
59282;DHT22;45054;52.062;10.010;2023-04-06T10:42:44;10.10;99.90
59282;DHT22;45054;52.062;10.010;2023-04-06T10:45:18;10.20;99.90
59282;DHT22;45054;52.062;10.010;2023-04-06T10:47:43;10.30;99.90
59282;DHT22;45054;52.062;10.010;2023-04-06T10:50:09;10.30;99.90
59282;DHT22;45054;52.062;10.010;2023-04-06T10:52:36;10.30;99.90
59282;DHT22;45054;52.062;10.010;2023-04-06T10:55:01;10.10;99.90
59282;DHT22;45054;52.062;10.010;2023-04-06T10:57:27;10.10;99.90
59282;DHT22;45054;52.062;10.010;2023-04-06T10:59:54;10.30;99.90
59282;DHT22;45054;52.062;10.010;2023-04-06T11:02:20;10.50;99.90
59282;DHT22;45054;52.062;10.010;2023-04-06T11:04:53;10.50;99.90
59282;DHT22;45054;52.062;10.010;2023-04-06T11:07:22;10.50;99.90
59282;DHT22;45054;52.062;10.010;2023-04-06T11:09:49;10.50;99.90
59282;DHT22;45054;52.062;10.010;2023-04-06T11:12:20;10.50;99.90
59282;DHT22;45054;52.062;10.010;2023-04-06T11:14:52;10.60;99.90
59282;DHT22;45054;52.062;10.010;2023-04-06T11:17:18;10.70;99.90
59282;DHT22;45054;52.062;10.010;2023-04-06T11:19:50;10.70;99.90
59282;DHT22;45054;52.062;10.010;2023-04-06T11:22:15;10.70;99.90
59282;DHT22;45054;52.062;10.010;2023-04-06T11:24:41;10.90;99.90
59282;DHT22;45054;52.062;10.010;2023-04-06T11:27:06;10.90;99.90
59282;DHT22;45054;52.062;10.010;2023-04-06T11:29:32;11.00;99.90
59282;DHT22;45054;52.062;10.010;2023-04-06T11:31:58;11.10;99.90
59282;DHT22;45054;52.062;10.010;2023-04-06T11:34:25;11.30;99.90
59282;DHT22;45054;52.062;10.010;2023-04-06T11:36:54;11.50;99.90
59282;DHT22;45054;52.062;10.010;2023-04-06T11:39:20;11.40;99.90
59282;DHT22;45054;52.062;10.010;2023-04-06T11:41:47;11.20;99.90
59282;DHT22;45054;52.062;10.010;2023-04-06T11:44:12;11.30;99.90
59282;DHT22;45054;52.062;10.010;2023-04-06T11:46:38;11.20;99.90
59282;DHT22;45054;52.062;10.010;2023-04-06T11:49:03;11.30;99.90
59282;DHT22;45054;52.062;10.010;2023-04-06T11:51:30;11.40;99.90
59282;DHT22;45054;52.062;10.010;2023-04-06T11:53:55;11.40;99.90
59282;DHT22;45054;52.062;10.010;2023-04-06T11:56:27;11.40;99.90
59282;DHT22;45054;52.062;10.010;2023-04-06T11:58:57;11.40;99.90
59282;DHT22;45054;52.062;10.010;2023-04-06T12:01:23;11.40;99.90
59282;DHT22;45054;52.062;10.010;2023-04-06T12:03:48;11.60;99.90
59282;DHT22;45054;52.062;10.010;2023-04-06T12:06:14;11.70;99.90
59282;DHT22;45054;52.062;10.010;2023-04-06T12:08:41;11.80;99.90
59282;DHT22;45054;52.062;10.010;2023-04-06T12:11:06;11.90;99.90
59282;DHT22;45054;52.062;10.010;2023-04-06T12:13:32;12.00;99.90
59282;DHT22;45054;52.062;10.010;2023-04-06T12:15:57;12.00;99.90
59282;DHT22;45054;52.062;10.010;2023-04-06T12:18:23;12.10;99.90
59282;DHT22;45054;52.062;10.010;2023-04-06T12:20:48;12.10;99.90
59282;DHT22;45054;52.062;10.010;2023-04-06T12:23:14;12.20;99.90
59282;DHT22;45054;52.062;10.010;2023-04-06T12:25:41;12.30;99.90
59282;DHT22;45054;52.062;10.010;2023-04-06T12:28:07;12.40;99.90
59282;DHT22;45054;52.062;10.010;2023-04-06T12:30:32;12.30;99.90
59282;DHT22;45054;52.062;10.010;2023-04-06T12:32:59;12.40;99.90
59282;DHT22;45054;52.062;10.010;2023-04-06T12:35:24;12.50;99.90
59282;DHT22;45054;52.062;10.010;2023-04-06T12:37:50;12.60;99.90
59282;DHT22;45054;52.062;10.010;2023-04-06T12:40:15;12.60;99.50
59282;DHT22;45054;52.062;10.010;2023-04-06T12:42:42;12.70;99.90
59282;DHT22;45054;52.062;10.010;2023-04-06T12:45:08;12.60;99.90
59282;DHT22;45054;52.062;10.010;2023-04-06T12:47:33;12.70;98.60
59282;DHT22;45054;52.062;10.010;2023-04-06T12:49:59;12.50;97.80
59282;DHT22;45054;52.062;10.010;2023-04-06T12:52:24;12.60;99.90
59282;DHT22;45054;52.062;10.010;2023-04-06T12:54:50;12.80;98.40
59282;DHT22;45054;52.062;10.010;2023-04-06T12:57:15;12.90;99.80
59282;DHT22;45054;52.062;10.010;2023-04-06T12:59:43;12.90;98.70
59282;DHT22;45054;52.062;10.010;2023-04-06T13:02:09;13.10;99.20
59282;DHT22;45054;52.062;10.010;2023-04-06T13:04:34;13.00;98.00
59282;DHT22;45054;52.062;10.010;2023-04-06T13:07:00;13.10;99.20
59282;DHT22;45054;52.062;10.010;2023-04-06T13:09:25;13.30;99.40
59282;DHT22;45054;52.062;10.010;2023-04-06T13:11:51;13.50;99.90
59282;DHT22;45054;52.062;10.010;2023-04-06T13:14:16;13.70;99.90
59282;DHT22;45054;52.062;10.010;2023-04-06T13:16:43;13.90;98.60
59282;DHT22;45054;52.062;10.010;2023-04-06T13:19:08;13.90;95.30
59282;DHT22;45054;52.062;10.010;2023-04-06T13:21:34;13.70;94.30
59282;DHT22;45054;52.062;10.010;2023-04-06T13:23:59;13.60;94.90
59282;DHT22;45054;52.062;10.010;2023-04-06T13:26:24;13.70;96.80
59282;DHT22;45054;52.062;10.010;2023-04-06T13:28:50;13.70;96.10
59282;DHT22;45054;52.062;10.010;2023-04-06T13:31:16;13.70;92.90
59282;DHT22;45054;52.062;10.010;2023-04-06T13:33:42;13.60;94.10
59282;DHT22;45054;52.062;10.010;2023-04-06T13:36:08;13.60;93.50
59282;DHT22;45054;52.062;10.010;2023-04-06T13:38:33;13.70;94.00
59282;DHT22;45054;52.062;10.010;2023-04-06T13:40:59;13.70;94.20
59282;DHT22;45054;52.062;10.010;2023-04-06T13:43:24;13.90;96.40
59282;DHT22;45054;52.062;10.010;2023-04-06T13:45:50;14.00;94.80
59282;DHT22;45054;52.062;10.010;2023-04-06T13:48:15;14.00;94.20
59282;DHT22;45054;52.062;10.010;2023-04-06T13:50:42;14.10;94.00
59282;DHT22;45054;52.062;10.010;2023-04-06T13:53:07;14.10;93.50
59282;DHT22;45054;52.062;10.010;2023-04-06T13:55:33;14.10;92.40
59282;DHT22;45054;52.062;10.010;2023-04-06T13:57:58;14.20;92.90
59282;DHT22;45054;52.062;10.010;2023-04-06T14:00:24;14.20;95.30
59282;DHT22;45054;52.062;10.010;2023-04-06T14:02:49;14.30;93.70
59282;DHT22;45054;52.062;10.010;2023-04-06T14:05:15;14.30;93.70
59282;DHT22;45054;52.062;10.010;2023-04-06T14:07:41;14.40;93.80
59282;DHT22;45054;52.062;10.010;2023-04-06T14:10:07;14.40;94.70
59282;DHT22;45054;52.062;10.010;2023-04-06T14:12:33;14.60;95.90
59282;DHT22;45054;52.062;10.010;2023-04-06T14:14:59;14.70;91.70
59282;DHT22;45054;52.062;10.010;2023-04-06T14:17:24;14.70;92.40
59282;DHT22;45054;52.062;10.010;2023-04-06T14:19:49;14.70;92.10
59282;DHT22;45054;52.062;10.010;2023-04-06T14:22:15;14.60;92.60
59282;DHT22;45054;52.062;10.010;2023-04-06T14:24:42;14.70;93.60
59282;DHT22;45054;52.062;10.010;2023-04-06T14:27:07;14.80;92.20
59282;DHT22;45054;52.062;10.010;2023-04-06T14:29:32;14.90;92.20
59282;DHT22;45054;52.062;10.010;2023-04-06T14:31:58;14.90;91.70
59282;DHT22;45054;52.062;10.010;2023-04-06T14:34:23;14.90;91.90
59282;DHT22;45054;52.062;10.010;2023-04-06T14:36:49;14.90;90.20
59282;DHT22;45054;52.062;10.010;2023-04-06T14:39:14;15.00;90.70
59282;DHT22;45054;52.062;10.010;2023-04-06T14:41:41;15.30;91.30
59282;DHT22;45054;52.062;10.010;2023-04-06T14:44:06;15.70;90.60
59282;DHT22;45054;52.062;10.010;2023-04-06T14:46:32;16.10;90.90
59282;DHT22;45054;52.062;10.010;2023-04-06T14:48:57;16.60;88.00
59282;DHT22;45054;52.062;10.010;2023-04-06T14:51:24;17.30;86.40
59282;DHT22;45054;52.062;10.010;2023-04-06T14:53:49;17.90;87.30
59282;DHT22;45054;52.062;10.010;2023-04-06T14:56:18;18.70;87.60
59282;DHT22;45054;52.062;10.010;2023-04-06T14:58:45;19.30;80.60
59282;DHT22;45054;52.062;10.010;2023-04-06T15:01:10;19.50;75.80
59282;DHT22;45054;52.062;10.010;2023-04-06T15:03:35;19.50;74.60
59282;DHT22;45054;52.062;10.010;2023-04-06T15:06:01;20.00;75.00
59282;DHT22;45054;52.062;10.010;2023-04-06T15:08:26;20.80;78.30
59282;DHT22;45054;52.062;10.010;2023-04-06T15:10:52;21.70;70.20
59282;DHT22;45054;52.062;10.010;2023-04-06T15:13:17;22.10;67.50
59282;DHT22;45054;52.062;10.010;2023-04-06T15:15:44;22.50;66.80
59282;DHT22;45054;52.062;10.010;2023-04-06T15:18:10;23.10;67.10